Time;durP1;ratioP1;P1;durP2;ratioP2;P2;SDS_P1;SDS_P2;PMS_P1;PMS_P2;Temp;Humidity;BMP_temperature;BMP_pressure;BME280_temperature;BME280_humidity;BME280_pressure;Samples;Min_cycle;Max_cycle;Signal;HPM_P1;HPM_P2
2022/04/20 00:00:03;;;;;;;9.90;3.50;;;;;;;;;;4931576;29;20130;-87
2022/04/20 00:02:31;;;;;;;9.88;3.72;;;;;;;;;;4946118;28;20132;-86
2022/04/20 00:04:58;;;;;;;7.80;3.28;;;;;;;;;;4937149;29;20051;-87
2022/04/20 00:07:26;;;;;;;10.35;3.38;;;;;;;;;;4922319;29;20458;-86
2022/04/20 00:09:53;;;;;;;6.32;3.40;;;;;;;;;;4932251;29;20142;-86
2022/04/20 00:12:20;;;;;;;8.55;3.33;;;;;;;;;;4947888;28;20082;-86
2022/04/20 00:14:47;;;;;;;7.47;3.78;;;;;;;;;;4929882;29;20154;-87
2022/04/20 00:17:14;;;;;;;8.90;3.47;;;;;;;;;;4928745;29;20130;-87
2022/04/20 00:19:42;;;;;;;9.82;3.50;;;;;;;;;;4937764;29;20083;-87
2022/04/20 00:22:09;;;;;;;12.68;3.92;;;;;;;;;;4937012;29;20138;-87
2022/04/20 00:24:36;;;;;;;10.48;3.92;;;;;;;;;;4932321;29;20059;-87
2022/04/20 00:27:03;;;;;;;6.60;3.53;;;;;;;;;;4931181;29;20074;-86
2022/04/20 00:29:31;;;;;;;10.68;3.38;;;;;;;;;;4931981;29;20154;-86
2022/04/20 00:31:58;;;;;;;8.40;3.63;;;;;;;;;;4940847;28;20106;-86
2022/04/20 00:34:25;;;;;;;8.65;3.40;;;;;;;;;;4931824;29;20117;-85
2022/04/20 00:36:53;;;;;;;9.50;3.53;;;;;;;;;;4935832;29;20055;-86
2022/04/20 00:39:21;;;;;;;11.48;3.88;;;;;;;;;;4952246;28;20102;-85
2022/04/20 00:41:49;;;;;;;6.70;3.35;;;;;;;;;;4937089;29;20523;-86
2022/04/20 00:44:16;;;;;;;10.18;4.20;;;;;;;;;;4930525;29;20063;-85
2022/04/20 00:46:45;;;;;;;5.80;3.22;;;;;;;;;;4934017;28;20102;-87
2022/04/20 00:49:13;;;;;;;7.78;4.35;;;;;;;;;;4931448;29;20122;-87
2022/04/20 00:52:10;;;;;;;11.45;4.00;;;;;;;;;;4960461;28;20086;-87
2022/04/20 00:54:38;;;;;;;6.88;3.35;;;;;;;;;;4926555;29;20055;-87
2022/04/20 00:57:05;;;;;;;10.30;3.75;;;;;;;;;;4936078;29;20062;-86
2022/04/20 00:59:35;;;;;;;9.00;3.50;;;;;;;;;;4932102;29;20540;-85
2022/04/20 01:02:03;;;;;;;12.70;4.05;;;;;;;;;;4930381;29;20054;-85
2022/04/20 01:04:31;;;;;;;6.75;3.60;;;;;;;;;;4931148;29;20050;-85
2022/04/20 01:07:10;;;;;;;9.98;4.07;;;;;;;;;;4929447;29;20051;-85
2022/04/20 01:09:38;;;;;;;8.50;4.20;;;;;;;;;;4932239;29;20162;-85
2022/04/20 01:12:06;;;;;;;9.35;4.65;;;;;;;;;;4926972;29;20126;-85
2022/04/20 01:14:33;;;;;;;10.25;4.53;;;;;;;;;;4931032;29;20067;-85
2022/04/20 01:17:01;;;;;;;6.88;3.90;;;;;;;;;;4931721;29;20055;-85
2022/04/20 01:19:40;;;;;;;10.60;4.90;;;;;;;;;;4946736;29;20551;-84
2022/04/20 01:22:08;;;;;;;10.82;3.75;;;;;;;;;;4931348;29;20063;-86
2022/04/20 01:24:36;;;;;;;8.95;4.00;;;;;;;;;;4933707;29;20114;-86
2022/04/20 01:27:05;;;;;;;9.18;3.92;;;;;;;;;;4936364;29;20052;-86
2022/04/20 01:29:33;;;;;;;8.88;4.00;;;;;;;;;;4933749;29;20113;-86
2022/04/20 01:32:00;;;;;;;8.43;3.67;;;;;;;;;;4934699;29;20043;-86
2022/04/20 01:34:28;;;;;;;11.48;4.80;;;;;;;;;;4934070;29;20051;-86
2022/04/20 01:36:55;;;;;;;8.73;3.83;;;;;;;;;;4941154;29;20054;-86
2022/04/20 01:39:22;;;;;;;12.88;4.40;;;;;;;;;;4935709;29;20066;-86
2022/04/20 01:41:49;;;;;;;10.35;4.20;;;;;;;;;;4941307;29;20058;-86
2022/04/20 01:44:17;;;;;;;9.55;4.25;;;;;;;;;;4926046;29;20063;-87
2022/04/20 01:46:44;;;;;;;8.80;3.92;;;;;;;;;;4934972;29;20058;-86
2022/04/20 01:49:11;;;;;;;7.68;3.97;;;;;;;;;;4951896;29;20106;-86
2022/04/20 01:51:50;;;;;;;8.43;4.07;;;;;;;;;;4936792;29;20055;-86
2022/04/20 01:54:19;;;;;;;10.20;4.65;;;;;;;;;;4948982;28;20099;-86
2022/04/20 01:56:50;;;;;;;10.23;4.50;;;;;;;;;;4937975;29;20054;-86
2022/04/20 01:59:17;;;;;;;8.50;3.78;;;;;;;;;;4938688;29;20067;-86
2022/04/20 02:04:31;;;;;;;;;;;;;;;;;;4955613;29;20050;-87
2022/04/20 02:06:58;;;;;;;10.98;4.07;;;;;;;;;;4939526;29;20687;-86
2022/04/20 02:09:25;;;;;;;9.10;4.18;;;;;;;;;;4939201;29;20051;-87
2022/04/20 02:11:53;;;;;;;7.60;4.13;;;;;;;;;;4939910;29;20058;-86
2022/04/20 02:14:20;;;;;;;9.30;4.40;;;;;;;;;;4936119;29;20113;-86
2022/04/20 02:16:47;;;;;;;14.10;4.80;;;;;;;;;;4954411;28;20051;-86
2022/04/20 02:19:15;;;;;;;14.15;4.32;;;;;;;;;;4954030;29;20051;-85
2022/04/20 02:21:42;;;;;;;9.25;4.40;;;;;;;;;;4938767;29;20055;-85
2022/04/20 02:24:14;;;;;;;14.10;4.75;;;;;;;;;;4936251;29;20048;-86
2022/04/20 02:26:41;;;;;;;10.57;4.15;;;;;;;;;;4938406;29;20059;-85
2022/04/20 02:29:08;;;;;;;8.75;4.50;;;;;;;;;;4934384;29;20075;-85
2022/04/20 02:31:36;;;;;;;14.75;5.00;;;;;;;;;;4937906;29;20134;-85
2022/04/20 02:34:03;;;;;;;15.93;4.47;;;;;;;;;;4950193;28;20067;-85
2022/04/20 02:36:31;;;;;;;7.00;4.15;;;;;;;;;;4934320;29;20059;-84
2022/04/20 02:39:03;;;;;;;14.35;5.38;;;;;;;;;;4939289;29;20063;-85
2022/04/20 02:41:33;;;;;;;9.40;4.63;;;;;;;;;;4938048;29;20122;-85
2022/04/20 02:44:01;;;;;;;8.05;4.82;;;;;;;;;;4937697;29;20894;-85
2022/04/20 02:46:28;;;;;;;13.70;4.80;;;;;;;;;;4940052;29;20067;-85
2022/04/20 02:48:55;;;;;;;8.45;4.57;;;;;;;;;;4943049;29;20142;-86
2022/04/20 02:51:22;;;;;;;15.88;4.93;;;;;;;;;;4929538;29;20534;-84
2022/04/20 02:53:50;;;;;;;11.05;4.53;;;;;;;;;;4944949;28;20059;-83
2022/04/20 02:56:17;;;;;;;12.73;5.13;;;;;;;;;;4937768;29;20488;-85
2022/04/20 02:58:44;;;;;;;18.55;4.43;;;;;;;;;;4937580;29;20527;-85
2022/04/20 03:01:12;;;;;;;8.82;4.57;;;;;;;;;;4930146;29;20104;-85
2022/04/20 03:03:39;;;;;;;10.48;4.60;;;;;;;;;;4936816;29;20051;-84
2022/04/20 03:06:06;;;;;;;8.75;4.55;;;;;;;;;;4937447;29;20059;-85
2022/04/20 03:08:34;;;;;;;9.38;4.47;;;;;;;;;;4950089;28;20119;-84
2022/04/20 03:11:01;;;;;;;9.05;4.43;;;;;;;;;;4937865;29;20062;-85
2022/04/20 03:13:28;;;;;;;15.38;4.70;;;;;;;;;;4934376;29;20063;-84
2022/04/20 03:15:55;;;;;;;13.60;5.32;;;;;;;;;;4931040;29;20123;-84
2022/04/20 03:18:23;;;;;;;9.80;4.10;;;;;;;;;;4936495;29;20138;-85
2022/04/20 03:20:51;;;;;;;12.80;4.20;;;;;;;;;;4937748;29;20106;-85
2022/04/20 03:23:18;;;;;;;6.72;4.25;;;;;;;;;;4936384;29;20780;-85
2022/04/20 03:25:45;;;;;;;9.45;5.20;;;;;;;;;;4936544;29;20055;-86
2022/04/20 03:28:12;;;;;;;11.27;4.80;;;;;;;;;;4953482;29;20082;-86
2022/04/20 03:30:41;;;;;;;12.95;4.93;;;;;;;;;;4934237;29;20051;-86
2022/04/20 03:33:09;;;;;;;9.70;5.00;;;;;;;;;;4936479;29;20050;-87
2022/04/20 03:35:38;;;;;;;18.45;5.55;;;;;;;;;;4939002;28;20058;-86
2022/04/20 03:38:06;;;;;;;11.88;5.93;;;;;;;;;;4947586;28;20051;-87
2022/04/20 03:40:34;;;;;;;13.30;5.20;;;;;;;;;;4939621;29;20055;-87
2022/04/20 03:43:04;;;;;;;17.10;5.10;;;;;;;;;;4937341;29;20499;-87
2022/04/20 03:45:32;;;;;;;11.98;4.78;;;;;;;;;;4937246;29;20051;-88
2022/04/20 03:47:59;;;;;;;14.02;5.55;;;;;;;;;;4937644;29;20111;-88
2022/04/20 03:50:26;;;;;;;11.85;5.28;;;;;;;;;;4937033;29;20098;-88
2022/04/20 03:52:54;;;;;;;11.00;4.95;;;;;;;;;;4940204;28;20125;-87
2022/04/20 03:55:21;;;;;;;13.82;5.22;;;;;;;;;;4965010;28;20082;-87
2022/04/20 03:57:48;;;;;;;11.65;5.38;;;;;;;;;;4937184;29;20568;-87
2022/04/20 04:00:15;;;;;;;12.48;5.55;;;;;;;;;;4936098;29;20523;-87
2022/04/20 04:02:43;;;;;;;12.95;5.43;;;;;;;;;;4937297;29;20105;-86
2022/04/20 04:05:10;;;;;;;14.88;5.75;;;;;;;;;;4935833;29;20130;-87
2022/04/20 04:07:37;;;;;;;12.70;5.68;;;;;;;;;;4953617;28;20086;-87
2022/04/20 04:10:06;;;;;;;11.23;5.75;;;;;;;;;;4936454;29;20486;-87
2022/04/20 04:12:34;;;;;;;16.95;5.43;;;;;;;;;;4935858;29;20488;-86
2022/04/20 04:15:02;;;;;;;10.85;5.95;;;;;;;;;;4941857;29;20102;-87
2022/04/20 04:17:30;;;;;;;15.48;6.10;;;;;;;;;;4934509;29;20047;-87
2022/04/20 04:19:57;;;;;;;14.02;5.97;;;;;;;;;;4937329;29;20102;-88
2022/04/20 04:22:24;;;;;;;12.20;6.10;;;;;;;;;;4953807;29;20063;-87
2022/04/20 04:24:52;;;;;;;12.77;5.50;;;;;;;;;;4935280;29;20432;-88
2022/04/20 04:27:20;;;;;;;19.27;6.55;;;;;;;;;;4942406;29;20059;-85
2022/04/20 04:29:48;;;;;;;13.02;5.53;;;;;;;;;;4937796;28;20192;-87
2022/04/20 04:32:15;;;;;;;15.23;6.63;;;;;;;;;;4937198;29;20134;-86
2022/04/20 04:34:42;;;;;;;19.15;6.00;;;;;;;;;;4933473;29;20059;-89
2022/04/20 04:37:13;;;;;;;17.80;7.00;;;;;;;;;;4934166;29;20151;-88
2022/04/20 04:39:41;;;;;;;13.70;6.45;;;;;;;;;;4920648;29;20142;-89
2022/04/20 04:42:08;;;;;;;12.68;6.32;;;;;;;;;;4936812;29;20083;-87
2022/04/20 04:44:37;;;;;;;17.15;7.28;;;;;;;;;;4942816;29;20106;-89
2022/04/20 04:49:54;;;;;;;17.38;6.63;;;;;;;;;;4956098;29;20531;-89
2022/04/20 04:52:29;;;;;;;18.13;6.82;;;;;;;;;;4957233;29;20143;-88
2022/04/20 04:54:56;;;;;;;13.73;6.57;;;;;;;;;;4955783;28;20146;-89
2022/04/20 04:57:23;;;;;;;15.90;6.82;;;;;;;;;;4951094;28;20047;-89
2022/04/20 04:59:50;;;;;;;11.02;5.63;;;;;;;;;;4955222;29;20043;-89
2022/04/20 05:02:21;;;;;;;14.40;6.78;;;;;;;;;;4945943;28;20063;-90
2022/04/20 05:04:48;;;;;;;12.57;5.80;;;;;;;;;;4938955;29;20075;-88
2022/04/20 05:07:15;;;;;;;15.07;6.28;;;;;;;;;;4954033;29;20051;-89
2022/04/20 05:09:44;;;;;;;14.95;6.57;;;;;;;;;;4942441;28;20465;-89
2022/04/20 05:12:11;;;;;;;12.50;6.20;;;;;;;;;;4948021;29;20053;-90
2022/04/20 05:14:39;;;;;;;12.02;5.40;;;;;;;;;;4938693;29;20133;-90
2022/04/20 05:17:06;;;;;;;14.10;6.25;;;;;;;;;;4942194;29;20052;-90
2022/04/20 05:19:34;;;;;;;12.65;6.00;;;;;;;;;;4939749;29;20075;-90
2022/04/20 05:22:02;;;;;;;10.98;6.38;;;;;;;;;;4936314;29;20114;-89
2022/04/20 05:24:35;;;;;;;14.20;6.35;;;;;;;;;;4944494;29;20051;-88
2022/04/20 05:27:03;;;;;;;17.95;5.90;;;;;;;;;;4951900;29;20083;-87
2022/04/20 05:29:30;;;;;;;20.23;7.30;;;;;;;;;;4922905;29;20051;-89
2022/04/20 05:31:59;;;;;;;11.70;5.78;;;;;;;;;;4937365;29;20082;-89
2022/04/20 05:34:30;;;;;;;11.68;5.40;;;;;;;;;;4939951;29;20130;-88
2022/04/20 05:42:29;;;;;;;11.93;5.83;;;;;;;;;;4953170;29;19930;-88
2022/04/20 05:44:56;;;;;;;10.52;5.53;;;;;;;;;;4935214;29;20052;-88
2022/04/20 05:47:23;;;;;;;13.50;5.57;;;;;;;;;;4938469;29;20456;-87
2022/04/20 05:49:51;;;;;;;9.77;5.40;;;;;;;;;;4953533;29;20055;-88
2022/04/20 05:52:18;;;;;;;9.52;5.47;;;;;;;;;;4934486;29;20597;-89
2022/04/20 05:54:45;;;;;;;12.20;5.22;;;;;;;;;;4932888;29;20111;-89
2022/04/20 05:57:12;;;;;;;16.25;6.05;;;;;;;;;;4931352;29;20055;-88
2022/04/20 05:59:41;;;;;;;13.02;5.38;;;;;;;;;;4936459;29;20055;-88
2022/04/20 06:02:08;;;;;;;18.40;5.03;;;;;;;;;;4937953;29;20492;-88
2022/04/20 06:04:36;;;;;;;14.90;5.35;;;;;;;;;;4936444;29;20048;-88
2022/04/20 06:07:06;;;;;;;10.75;4.90;;;;;;;;;;4947930;29;20055;-88
2022/04/20 06:09:36;;;;;;;11.85;4.88;;;;;;;;;;4937946;29;20106;-88
2022/04/20 06:12:04;;;;;;;16.88;5.75;;;;;;;;;;4942692;29;20047;-88
2022/04/20 06:14:31;;;;;;;10.63;5.40;;;;;;;;;;4928916;29;20052;-88
2022/04/20 06:16:58;;;;;;;12.48;5.38;;;;;;;;;;4940008;29;20051;-89
2022/04/20 06:19:25;;;;;;;9.90;5.22;;;;;;;;;;4941289;29;20109;-88
2022/04/20 06:21:53;;;;;;;8.63;5.00;;;;;;;;;;4952358;29;20402;-88
2022/04/20 06:24:20;;;;;;;10.38;4.82;;;;;;;;;;4940504;28;20098;-88
2022/04/20 06:26:47;;;;;;;11.23;5.07;;;;;;;;;;4949505;29;20048;-88
2022/04/20 06:29:14;;;;;;;12.20;5.50;;;;;;;;;;4938986;29;20119;-88
2022/04/20 06:31:44;;;;;;;12.02;5.80;;;;;;;;;;4940501;29;20079;-88
2022/04/20 06:34:11;;;;;;;16.75;5.32;;;;;;;;;;4954191;29;20446;-88
2022/04/20 06:36:38;;;;;;;9.45;4.95;;;;;;;;;;4945501;29;20075;-89
2022/04/20 06:39:07;;;;;;;16.77;4.72;;;;;;;;;;4940271;29;20060;-88
2022/04/20 06:41:34;;;;;;;16.73;4.18;;;;;;;;;;4939003;29;20113;-88
2022/04/20 06:44:02;;;;;;;7.63;4.70;;;;;;;;;;4957164;29;20059;-88
2022/04/20 06:46:29;;;;;;;9.38;4.43;;;;;;;;;;4956043;29;20059;-89
2022/04/20 06:49:01;;;;;;;10.57;3.60;;;;;;;;;;4940486;29;20047;-88
2022/04/20 06:58:31;;;;;;;7.07;3.33;;;;;;;;;;4946729;28;20118;-88
2022/04/20 07:00:00;;;;;;;;;;;;;;;;;;4956594;28;20110;-88
2022/04/20 07:02:32;;;;;;;11.13;3.05;;;;;;;;;;4942531;29;19926;-87
2022/04/20 07:04:59;;;;;;;10.52;3.42;;;;;;;;;;4942207;29;20142;-88
2022/04/20 07:07:27;;;;;;;13.25;2.90;;;;;;;;;;4946451;29;20128;-88
2022/04/20 07:10:15;;;;;;;9.27;3.20;;;;;;;;;;4943187;29;20078;-87
2022/04/20 07:12:44;;;;;;;6.32;3.28;;;;;;;;;;4941417;29;20501;-87
2022/04/20 07:15:11;;;;;;;7.32;3.17;;;;;;;;;;4943018;29;20118;-89
2022/04/20 07:17:39;;;;;;;6.65;2.95;;;;;;;;;;4939902;29;20465;-87
2022/04/20 07:20:06;;;;;;;7.72;2.85;;;;;;;;;;4938453;28;20059;-86
2022/04/20 07:22:33;;;;;;;10.10;3.75;;;;;;;;;;4936710;29;20074;-87
2022/04/20 07:25:01;;;;;;;10.27;3.63;;;;;;;;;;4933843;29;20493;-87
2022/04/20 07:27:28;;;;;;;6.38;3.70;;;;;;;;;;4929970;29;20055;-85
2022/04/20 07:29:55;;;;;;;6.30;3.92;;;;;;;;;;4916669;29;20469;-86
2022/04/20 07:32:22;;;;;;;8.73;3.47;;;;;;;;;;4935990;28;20059;-86
2022/04/20 07:34:51;;;;;;;16.00;3.25;;;;;;;;;;4951053;29;20063;-87
2022/04/20 07:37:18;;;;;;;10.77;3.25;;;;;;;;;;4932236;29;20060;-87
2022/04/20 07:39:47;;;;;;;9.35;2.85;;;;;;;;;;4934253;29;20087;-88
2022/04/20 07:42:14;;;;;;;7.15;3.17;;;;;;;;;;4933794;29;20137;-87
2022/04/20 07:44:42;;;;;;;9.25;2.70;;;;;;;;;;4916770;29;20047;-87
2022/04/20 07:47:09;;;;;;;7.50;3.53;;;;;;;;;;4935577;28;20546;-86
2022/04/20 07:52:25;;;;;;;15.52;2.78;;;;;;;;;;4941719;29;20047;-87
2022/04/20 07:54:59;;;;;;;11.03;3.43;;;;;;;;;;4936510;29;20047;-88
2022/04/20 07:57:27;;;;;;;6.70;2.92;;;;;;;;;;4941533;29;20162;-88
2022/04/20 07:59:58;;;;;;;7.47;2.75;;;;;;;;;;4942206;29;20055;-90
2022/04/20 08:02:26;;;;;;;3.92;2.58;;;;;;;;;;4943846;28;20059;-89
2022/04/20 08:04:53;;;;;;;8.57;3.15;;;;;;;;;;4933806;29;20126;-89
2022/04/20 08:07:20;;;;;;;4.65;2.53;;;;;;;;;;4926197;29;20219;-88
2022/04/20 08:09:48;;;;;;;6.88;3.08;;;;;;;;;;4934159;29;20545;-89
2022/04/20 08:12:15;;;;;;;6.85;3.15;;;;;;;;;;4959584;28;20493;-88
2022/04/20 08:14:42;;;;;;;4.45;2.35;;;;;;;;;;4914820;29;20052;-88
2022/04/20 08:17:09;;;;;;;7.68;2.58;;;;;;;;;;4932476;29;20146;-88
2022/04/20 08:19:37;;;;;;;3.80;2.55;;;;;;;;;;4949419;29;20062;-88
2022/04/20 08:22:04;;;;;;;49.63;7.15;;;;;;;;;;4932066;29;20079;-88
2022/04/20 08:24:31;;;;;;;13.48;2.85;;;;;;;;;;4949409;29;20248;-88
2022/04/20 08:26:59;;;;;;;37.65;6.32;;;;;;;;;;4918593;29;20124;-88
2022/04/20 08:29:26;;;;;;;32.03;4.43;;;;;;;;;;4948075;29;20067;-88
2022/04/20 08:31:53;;;;;;;27.20;4.20;;;;;;;;;;4948950;28;20055;-88
2022/04/20 08:34:20;;;;;;;4.35;1.95;;;;;;;;;;4928331;29;20145;-87
2022/04/20 08:36:48;;;;;;;7.40;2.28;;;;;;;;;;4951096;28;20535;-88
2022/04/20 08:39:15;;;;;;;7.85;3.13;;;;;;;;;;4932461;29;20130;-88
2022/04/20 08:41:48;;;;;;;4.93;2.45;;;;;;;;;;4945869;28;20075;-87
2022/04/20 08:44:21;;;;;;;6.90;2.70;;;;;;;;;;4928914;29;20496;-88
2022/04/20 08:46:51;;;;;;;7.45;2.88;;;;;;;;;;4930862;29;20416;-88
2022/04/20 08:49:18;;;;;;;4.10;2.45;;;;;;;;;;4928295;29;20075;-89
2022/04/20 08:54:33;;;;;;;5.47;2.60;;;;;;;;;;4931172;29;20058;-88
2022/04/20 08:57:16;;;;;;;13.48;3.25;;;;;;;;;;4931220;29;20402;-83
2022/04/20 08:59:48;;;;;;;33.13;3.95;;;;;;;;;;4947428;29;20134;-84
2022/04/20 09:02:16;;;;;;;90.80;9.15;;;;;;;;;;4946862;29;20125;-87
2022/04/20 09:04:44;;;;;;;23.80;4.47;;;;;;;;;;4930364;29;20051;-89
2022/04/20 09:07:14;;;;;;;24.55;3.60;;;;;;;;;;4946131;29;20055;-84
2022/04/20 09:09:41;;;;;;;7.50;3.00;;;;;;;;;;4932458;29;20114;-86
2022/04/20 09:12:11;;;;;;;6.90;2.72;;;;;;;;;;4932405;29;20098;-87
2022/04/20 09:14:40;;;;;;;3.42;2.40;;;;;;;;;;4929399;29;20549;-86
2022/04/20 09:17:12;;;;;;;19.92;1.95;;;;;;;;;;4924975;29;20714;-85
2022/04/20 09:19:43;;;;;;;9.13;2.20;;;;;;;;;;4923339;29;20047;-85
2022/04/20 09:22:32;;;;;;;25.55;3.97;;;;;;;;;;4929115;29;20453;-89
2022/04/20 09:25:05;;;;;;;12.98;1.95;;;;;;;;;;4935705;29;20052;-87
2022/04/20 09:27:37;;;;;;;7.65;2.03;;;;;;;;;;4941451;29;20071;-89
2022/04/20 09:30:33;;;;;;;27.65;4.28;;;;;;;;;;4923760;29;20089;-90
2022/04/20 09:33:17;;;;;;;17.38;2.22;;;;;;;;;;4880480;29;20528;-90
2022/04/20 09:39:11;;;;;;;2.63;1.60;;;;;;;;;;4930286;28;20070;-90
2022/04/20 09:42:05;;;;;;;7.95;1.70;;;;;;;;;;4921981;29;20051;-91
2022/04/20 09:44:38;;;;;;;4.30;1.73;;;;;;;;;;4932491;29;20569;-90
2022/04/20 09:50:30;;;;;;;6.75;2.00;;;;;;;;;;4948404;29;20051;-90
2022/04/20 09:53:12;;;;;;;3.28;1.75;;;;;;;;;;4937001;29;20102;-90
2022/04/20 09:55:43;;;;;;;6.57;2.05;;;;;;;;;;4940156;28;20783;-90
2022/04/20 09:58:27;;;;;;;2.30;1.60;;;;;;;;;;4950346;29;20051;-89
2022/04/20 10:04:09;;;;;;;5.70;1.90;;;;;;;;;;4873241;29;20061;-89
2022/04/20 10:06:43;;;;;;;4.60;1.85;;;;;;;;;;4850679;29;20152;-89
2022/04/20 10:09:12;;;;;;;15.07;2.08;;;;;;;;;;4896552;29;20051;-90
2022/04/20 10:11:53;;;;;;;12.75;2.50;;;;;;;;;;4911083;29;20182;-90
2022/04/20 10:17:21;;;;;;;9.15;1.67;;;;;;;;;;4953771;29;20500;-94
2022/04/20 10:20:21;;;;;;;4.88;1.30;;;;;;;;;;4944559;29;20057;-93
2022/04/20 10:22:53;;;;;;;3.60;1.40;;;;;;;;;;4928392;29;20059;-93
2022/04/20 10:25:24;;;;;;;2.70;1.40;;;;;;;;;;4946675;28;20079;-94
2022/04/20 10:28:11;;;;;;;5.00;1.50;;;;;;;;;;4930783;29;20110;-94
2022/04/20 10:31:01;;;;;;;24.70;2.13;;;;;;;;;;4943833;29;20062;-89
2022/04/20 10:33:31;;;;;;;1.98;0.90;;;;;;;;;;4924959;29;20063;-92
2022/04/20 10:36:03;;;;;;;1.15;1.05;;;;;;;;;;4923219;29;20461;-87
2022/04/20 10:38:31;;;;;;;1.70;1.30;;;;;;;;;;4939015;29;20058;-86
2022/04/20 10:40:59;;;;;;;10.38;1.55;;;;;;;;;;4927294;28;20273;-87
2022/04/20 10:43:27;;;;;;;4.22;1.70;;;;;;;;;;4920284;29;20086;-87
2022/04/20 10:46:05;;;;;;;22.90;2.28;;;;;;;;;;4932032;28;20130;-88
2022/04/20 10:48:43;;;;;;;44.45;5.13;;;;;;;;;;4928318;29;20658;-91
2022/04/20 10:51:11;;;;;;;3.40;1.02;;;;;;;;;;4933394;29;20134;-91
2022/04/20 10:53:43;;;;;;;12.48;1.30;;;;;;;;;;4938049;29;20090;-92
2022/04/20 10:56:11;;;;;;;3.30;1.10;;;;;;;;;;4928058;29;20066;-92
2022/04/20 10:58:51;;;;;;;1.25;0.98;;;;;;;;;;4938742;29;20061;-94
2022/04/20 11:01:22;;;;;;;3.50;1.05;;;;;;;;;;4939723;28;20082;-92
2022/04/20 11:03:58;;;;;;;9.18;1.50;;;;;;;;;;4928041;29;20138;-94
2022/04/20 11:06:29;;;;;;;2.70;1.30;;;;;;;;;;4932799;29;20047;-86
2022/04/20 11:09:00;;;;;;;10.55;1.50;;;;;;;;;;4919557;29;20189;-89
2022/04/20 11:21:06;;;;;;;3.45;0.90;;;;;;;;;;4946130;28;20059;-90
2022/04/20 11:23:53;;;;;;;3.75;1.00;;;;;;;;;;4923361;29;20059;-87
2022/04/20 11:26:40;;;;;;;2.25;1.15;;;;;;;;;;4915081;29;20047;-90
2022/04/20 11:29:12;;;;;;;2.20;1.02;;;;;;;;;;4920632;29;20792;-91
2022/04/20 11:31:51;;;;;;;1.20;1.00;;;;;;;;;;4919709;28;20047;-91
2022/04/20 11:34:27;;;;;;;2.88;1.10;;;;;;;;;;4914351;29;20053;-91
2022/04/20 11:37:01;;;;;;;1.35;0.80;;;;;;;;;;4932213;28;21349;-92
2022/04/20 11:39:29;;;;;;;0.95;0.77;;;;;;;;;;4931706;29;20051;-92
2022/04/20 11:42:02;;;;;;;2.35;1.17;;;;;;;;;;4915408;29;20481;-92
2022/04/20 11:44:35;;;;;;;10.85;1.10;;;;;;;;;;4911601;29;20123;-89
2022/04/20 11:47:11;;;;;;;11.32;1.48;;;;;;;;;;4889530;29;20052;-87
2022/04/20 11:49:43;;;;;;;17.25;1.40;;;;;;;;;;4910778;29;20047;-87
2022/04/20 11:52:15;;;;;;;2.47;1.00;;;;;;;;;;4923856;29;20564;-91
2022/04/20 11:54:48;;;;;;;5.40;1.00;;;;;;;;;;4906122;29;20055;-92
2022/04/20 11:57:16;;;;;;;1.20;0.90;;;;;;;;;;4890065;29;20126;-90
2022/04/20 11:59:50;;;;;;;6.03;1.48;;;;;;;;;;4915597;28;20059;-88
2022/04/20 12:02:22;;;;;;;2.55;0.98;;;;;;;;;;4916763;28;20105;-87
2022/04/20 12:04:50;;;;;;;2.10;1.30;;;;;;;;;;4908919;29;20519;-90
2022/04/20 12:07:17;;;;;;;3.88;0.90;;;;;;;;;;4917210;28;20173;-87
2022/04/20 12:09:47;;;;;;;2.13;0.88;;;;;;;;;;4913685;28;20062;-88
2022/04/20 12:12:17;;;;;;;6.13;1.10;;;;;;;;;;4912901;28;20174;-87
2022/04/20 12:14:47;;;;;;;5.10;1.05;;;;;;;;;;4906441;29;20047;-87
2022/04/20 12:17:20;;;;;;;3.50;1.17;;;;;;;;;;4937771;29;20505;-85
2022/04/20 12:19:48;;;;;;;14.88;2.55;;;;;;;;;;4919091;29;20567;-85
2022/04/20 12:22:18;;;;;;;12.13;1.80;;;;;;;;;;4919807;29;20067;-86
2022/04/20 12:24:47;;;;;;;5.93;1.13;;;;;;;;;;4909731;28;20102;-87
2022/04/20 12:27:22;;;;;;;3.47;1.30;;;;;;;;;;4931905;29;20058;-87
2022/04/20 12:29:53;;;;;;;6.80;1.63;;;;;;;;;;4908356;29;20138;-87
2022/04/20 12:32:36;;;;;;;8.77;1.40;;;;;;;;;;4894594;29;20126;-87
2022/04/20 12:35:05;;;;;;;5.25;1.20;;;;;;;;;;4897369;29;20760;-85
2022/04/20 12:37:33;;;;;;;3.65;1.88;;;;;;;;;;4896700;29;20194;-86
2022/04/20 12:40:21;;;;;;;4.00;1.75;;;;;;;;;;4921243;28;20063;-87
2022/04/20 12:43:00;;;;;;;7.85;1.40;;;;;;;;;;4912010;29;20118;-87
2022/04/20 12:45:28;;;;;;;5.03;1.30;;;;;;;;;;4911486;29;20051;-88
2022/04/20 12:48:03;;;;;;;4.82;2.20;;;;;;;;;;4901439;29;20051;-86
2022/04/20 12:50:35;;;;;;;5.72;1.33;;;;;;;;;;4898804;29;21042;-87
2022/04/20 12:53:02;;;;;;;5.95;1.17;;;;;;;;;;4928724;28;20693;-88
2022/04/20 12:55:37;;;;;;;2.15;1.10;;;;;;;;;;4923492;28;20141;-89
2022/04/20 13:03:46;;;;;;;1.88;1.13;;;;;;;;;;4937463;29;20679;-87
2022/04/20 13:06:14;;;;;;;1.40;1.02;;;;;;;;;;4924639;29;20043;-86
2022/04/20 13:08:46;;;;;;;3.92;1.20;;;;;;;;;;4929004;28;20449;-87
2022/04/20 13:11:14;;;;;;;6.68;1.27;;;;;;;;;;4913154;29;20123;-86
2022/04/20 13:14:02;;;;;;;3.90;1.33;;;;;;;;;;4938095;28;20051;-88
2022/04/20 13:16:29;;;;;;;8.77;1.90;;;;;;;;;;4923081;29;20423;-86
2022/04/20 13:18:59;;;;;;;9.93;1.48;;;;;;;;;;4944924;28;20468;-87
2022/04/20 13:21:26;;;;;;;12.38;2.20;;;;;;;;;;4945250;29;20051;-85
2022/04/20 13:23:54;;;;;;;1.98;0.98;;;;;;;;;;4932253;29;20508;-88
2022/04/20 13:29:10;;;;;;;7.68;1.60;;;;;;;;;;4948916;29;20078;-85
2022/04/20 13:31:37;;;;;;;6.65;1.33;;;;;;;;;;4929811;29;20055;-84
2022/04/20 13:34:05;;;;;;;2.00;1.38;;;;;;;;;;4936258;29;20130;-87
2022/04/20 13:36:32;;;;;;;4.75;1.30;;;;;;;;;;4942129;29;20063;-84
2022/04/20 13:38:59;;;;;;;2.60;1.73;;;;;;;;;;4936022;29;20058;-84
2022/04/20 13:41:27;;;;;;;6.13;2.25;;;;;;;;;;4936346;29;20062;-85
2022/04/20 13:43:54;;;;;;;17.00;1.98;;;;;;;;;;4941311;28;20611;-85
2022/04/20 13:46:21;;;;;;;4.72;1.90;;;;;;;;;;4911944;29;20202;-86
2022/04/20 13:48:49;;;;;;;8.27;1.92;;;;;;;;;;4940826;28;20051;-88
2022/04/20 13:51:16;;;;;;;4.75;1.83;;;;;;;;;;4910171;29;21081;-86
2022/04/20 13:53:43;;;;;;;2.70;1.75;;;;;;;;;;4875311;29;20096;-85
2022/04/20 13:56:11;;;;;;;6.30;1.80;;;;;;;;;;4871955;29;20051;-86
2022/04/20 13:58:38;;;;;;;4.30;2.33;;;;;;;;;;4889246;28;20051;-86
2022/04/20 14:01:06;;;;;;;4.30;2.35;;;;;;;;;;4894461;29;20055;-87
2022/04/20 14:03:39;;;;;;;11.55;1.73;;;;;;;;;;4893043;29;20059;-84
2022/04/20 14:06:06;;;;;;;7.25;2.13;;;;;;;;;;4911715;28;20081;-85
2022/04/20 14:08:33;;;;;;;5.43;2.20;;;;;;;;;;4888212;28;20122;-85
2022/04/20 14:11:01;;;;;;;4.90;1.88;;;;;;;;;;4899018;29;20066;-87
2022/04/20 14:13:28;;;;;;;5.57;2.28;;;;;;;;;;4897512;29;20399;-86
2022/04/20 14:16:00;;;;;;;3.33;1.75;;;;;;;;;;4935836;28;20114;-86
2022/04/20 14:18:27;;;;;;;5.68;2.33;;;;;;;;;;4903628;29;21299;-87
2022/04/20 14:20:55;;;;;;;12.10;2.00;;;;;;;;;;4902526;29;20075;-88
2022/04/20 14:23:22;;;;;;;6.82;2.00;;;;;;;;;;4912547;29;20552;-86
2022/04/20 14:34:08;;;;;;;4.57;2.42;;;;;;;;;;4920148;29;20043;-86
2022/04/20 14:36:36;;;;;;;14.82;2.83;;;;;;;;;;4918077;28;20425;-86
2022/04/20 14:39:04;;;;;;;6.90;2.30;;;;;;;;;;4913713;29;20428;-87
2022/04/20 14:41:32;;;;;;;7.35;2.35;;;;;;;;;;4937171;29;20152;-88
2022/04/20 14:44:15;;;;;;;4.82;2.42;;;;;;;;;;4923085;29;20130;-90
2022/04/20 14:46:46;;;;;;;9.57;2.40;;;;;;;;;;4918814;29;20047;-90
2022/04/20 14:49:13;;;;;;;6.60;2.05;;;;;;;;;;4912699;29;20051;-86
2022/04/20 14:51:44;;;;;;;7.80;2.92;;;;;;;;;;4911710;29;20146;-88
2022/04/20 14:54:14;;;;;;;8.60;2.78;;;;;;;;;;4913556;29;20051;-87
2022/04/20 14:56:41;;;;;;;7.53;2.75;;;;;;;;;;4913782;29;20150;-86
2022/04/20 14:59:08;;;;;;;3.95;2.30;;;;;;;;;;4911610;29;20138;-86
2022/04/20 15:01:36;;;;;;;8.07;2.78;;;;;;;;;;4926343;28;20157;-85
2022/04/20 15:04:04;;;;;;;10.32;4.28;;;;;;;;;;4926493;29;20150;-85
2022/04/20 15:06:31;;;;;;;22.42;4.40;;;;;;;;;;4935377;29;20056;-84
2022/04/20 15:08:59;;;;;;;19.92;4.38;;;;;;;;;;4919056;29;20107;-85
2022/04/20 15:11:26;;;;;;;7.97;3.42;;;;;;;;;;4916977;29;20122;-86
2022/04/20 15:13:55;;;;;;;6.13;3.58;;;;;;;;;;4936613;29;20347;-86
2022/04/20 15:16:22;;;;;;;12.65;3.55;;;;;;;;;;4928967;28;20082;-86
2022/04/20 15:18:49;;;;;;;12.88;2.75;;;;;;;;;;4934278;29;20051;-85
2022/04/20 15:21:17;;;;;;;9.13;2.50;;;;;;;;;;4931010;29;20138;-90
2022/04/20 15:23:52;;;;;;;;;;;;;;;;;;4922479;29;20075;-92
2022/04/20 15:26:23;;;;;;;6.50;2.72;;;;;;;;;;4940590;29;19926;-92
2022/04/20 15:32:48;;;;;;;6.18;3.10;;;;;;;;;;4950413;28;20059;-92
2022/04/20 15:38:57;;;;;;;6.90;2.97;;;;;;;;;;4834249;29;20106;-93
2022/04/20 15:41:32;;;;;;;7.32;3.25;;;;;;;;;;4834253;29;20062;-92
2022/04/20 15:44:25;;;;;;;7.03;2.90;;;;;;;;;;4857582;29;20118;-90
2022/04/20 15:46:53;;;;;;;7.40;2.72;;;;;;;;;;4845437;29;20319;-89
2022/04/20 15:49:21;;;;;;;4.07;2.72;;;;;;;;;;4816231;29;20058;-89
2022/04/20 15:52:16;;;;;;;3.75;2.40;;;;;;;;;;4821154;29;20166;-92
2022/04/20 15:54:43;;;;;;;11.55;3.70;;;;;;;;;;4829832;29;20466;-90
2022/04/20 16:00:34;;;;;;;6.80;2.88;;;;;;;;;;4841037;29;20569;-92
2022/04/20 16:03:05;;;;;;;5.13;2.75;;;;;;;;;;4832985;29;20119;-91
2022/04/20 16:05:40;;;;;;;7.60;2.72;;;;;;;;;;4808663;29;20135;-88